createdAt,value
2018-12-29T00:00:02.321Z,-76
2018-12-29T00:01:02.110Z,-75
2018-12-29T00:02:02.287Z,-76
2018-12-29T00:03:02.069Z,-76
2018-12-29T00:04:02.118Z,-75
2018-12-29T00:05:01.848Z,-77
2018-12-29T00:06:02.231Z,-77
2018-12-29T00:07:02.091Z,-76
2018-12-29T00:08:01.903Z,-76
2018-12-29T00:09:02.329Z,-76
2018-12-29T00:10:02.245Z,-76
2018-12-29T00:11:02.020Z,-76
2018-12-29T00:12:01.811Z,-77
2018-12-29T00:13:01.971Z,-77
2018-12-29T00:14:01.892Z,-77
2018-12-29T00:15:02.098Z,-76
2018-12-29T00:16:02.347Z,-75
2018-12-29T00:17:02.645Z,-75
2018-12-29T00:18:01.850Z,-77
2018-12-29T00:19:01.908Z,-77
2018-12-29T00:20:02.019Z,-75
2018-12-29T00:21:01.850Z,-76
2018-12-29T00:22:01.849Z,-76
2018-12-29T00:23:02.039Z,-76
2018-12-29T00:24:01.821Z,-77
2018-12-29T00:25:02.226Z,-76
2018-12-29T00:26:02.196Z,-75
2018-12-29T00:27:02.310Z,-75
2018-12-29T00:28:01.828Z,-77
2018-12-29T00:29:01.932Z,-77
2018-12-29T00:30:01.985Z,-77
2018-12-29T00:31:01.932Z,-76
2018-12-29T00:32:01.820Z,-77
2018-12-29T00:33:01.931Z,-77
2018-12-29T00:34:01.819Z,-77
2018-12-29T00:35:01.864Z,-77
2018-12-29T00:36:01.877Z,-77
2018-12-29T00:37:02.417Z,-75
2018-12-29T00:38:02.272Z,-75
2018-12-29T00:39:01.782Z,-77
2018-12-29T00:40:01.882Z,-77
2018-12-29T00:41:01.912Z,-77
2018-12-29T00:42:01.825Z,-76
2018-12-29T00:43:01.793Z,-77
2018-12-29T00:44:02.127Z,-76
2018-12-29T00:45:03.404Z,-76
2018-12-29T00:46:01.900Z,-76
2018-12-29T00:47:01.870Z,-77
2018-12-29T00:48:01.778Z,-76
2018-12-29T00:49:02.042Z,-77
2018-12-29T00:50:01.844Z,-77
2018-12-29T00:51:01.869Z,-77
2018-12-29T00:52:01.770Z,-77
2018-12-29T00:53:01.875Z,-77
2018-12-29T00:54:01.767Z,-77
2018-12-29T00:55:02.249Z,-76
2018-12-29T00:56:01.717Z,-77
2018-12-29T00:57:01.998Z,-76
2018-12-29T00:58:01.767Z,-77
2018-12-29T00:59:01.843Z,-77
2018-12-29T01:00:02.314Z,-76
2018-12-29T01:01:01.641Z,-76
2018-12-29T01:02:02.817Z,-75
2018-12-29T01:03:01.835Z,-76
2018-12-29T01:04:01.912Z,-75
2018-12-29T01:05:02.053Z,-76
2018-12-29T01:06:01.981Z,-76
2018-12-29T01:07:02.394Z,-76
2018-12-29T01:08:02.441Z,-75
2018-12-29T01:09:03.072Z,-77
2018-12-29T01:10:02.213Z,-75
2018-12-29T01:11:01.858Z,-77
2018-12-29T01:12:02.001Z,-76
2018-12-29T01:13:01.806Z,-76
2018-12-29T01:14:01.824Z,-77
2018-12-29T01:15:02.106Z,-75
2018-12-29T01:16:02.099Z,-76
2018-12-29T01:17:01.884Z,-77
2018-12-29T01:18:01.890Z,-76
2018-12-29T01:19:01.875Z,-77
2018-12-29T01:20:02.084Z,-76
2018-12-29T01:21:01.739Z,-77
2018-12-29T01:22:01.841Z,-77
2018-12-29T01:23:01.780Z,-77
2018-12-29T01:24:02.048Z,-76
2018-12-29T01:25:02.433Z,-74
2018-12-29T01:26:02.082Z,-75
2018-12-29T01:27:01.982Z,-75
2018-12-29T01:28:02.017Z,-76
2018-12-29T01:29:01.977Z,-76
2018-12-29T01:30:02.558Z,-75
2018-12-29T01:31:01.765Z,-76
2018-12-29T01:32:02.007Z,-76
2018-12-29T01:33:01.764Z,-77
2018-12-29T01:34:01.990Z,-75
2018-12-29T01:35:02.936Z,-76
2018-12-29T01:36:01.728Z,-76
2018-12-29T01:37:02.283Z,-75
2018-12-29T01:38:02.250Z,-75
2018-12-29T01:39:02.053Z,-75
2018-12-29T01:40:02.216Z,-76
2018-12-29T01:41:01.757Z,-77
2018-12-29T01:42:02.340Z,-75
2018-12-29T01:43:01.994Z,-75
2018-12-29T01:44:01.750Z,-76
2018-12-29T01:45:01.761Z,-76
2018-12-29T01:46:01.817Z,-77
2018-12-29T01:47:01.821Z,-76
2018-12-29T01:48:01.939Z,-75
2018-12-29T01:49:02.062Z,-75
2018-12-29T01:50:02.556Z,-75
2018-12-29T01:51:01.743Z,-76
2018-12-29T01:52:02.007Z,-76
2018-12-29T01:53:02.155Z,-75
2018-12-29T01:54:01.911Z,-76
2018-12-29T01:55:01.927Z,-75
2018-12-29T01:56:02.151Z,-75
2018-12-29T01:57:02.047Z,-76
2018-12-29T01:58:01.756Z,-76
2018-12-29T01:59:01.710Z,-76
2018-12-29T02:00:01.733Z,-76
2018-12-29T02:01:01.769Z,-76
2018-12-29T02:02:02.923Z,-75
2018-12-29T02:03:01.697Z,-76
2018-12-29T02:04:01.741Z,-76
2018-12-29T02:05:02.092Z,-75
2018-12-29T02:06:01.866Z,-76
2018-12-29T02:07:01.694Z,-76
2018-12-29T02:08:01.791Z,-77
2018-12-29T02:09:01.936Z,-76
2018-12-29T02:10:01.714Z,-76
2018-12-29T02:11:01.816Z,-77
2018-12-29T02:12:01.934Z,-76
2018-12-29T02:13:01.814Z,-76
2018-12-29T02:14:01.836Z,-75
2018-12-29T02:15:01.898Z,-75
2018-12-29T02:16:02.164Z,-76
2018-12-29T02:17:01.825Z,-76
2018-12-29T02:18:01.800Z,-76
2018-12-29T02:19:01.653Z,-76
2018-12-29T02:20:02.051Z,-75
2018-12-29T02:21:01.703Z,-76
2018-12-29T02:22:01.927Z,-77
2018-12-29T02:23:01.745Z,-76
2018-12-29T02:24:01.633Z,-77
2018-12-29T02:25:01.745Z,-76
2018-12-29T02:26:01.833Z,-76
2018-12-29T02:27:01.717Z,-76
2018-12-29T02:28:01.885Z,-76
2018-12-29T02:29:01.653Z,-77
2018-12-29T02:30:01.924Z,-75
2018-12-29T02:31:02.279Z,-75
2018-12-29T02:32:01.968Z,-76
2018-12-29T02:33:01.738Z,-76
2018-12-29T02:34:02.090Z,-76
2018-12-29T02:35:01.804Z,-76
2018-12-29T02:36:01.780Z,-76
2018-12-29T02:37:01.755Z,-77
2018-12-29T02:38:01.648Z,-77
2018-12-29T02:39:02.230Z,-76
2018-12-29T02:40:01.797Z,-77
2018-12-29T02:41:02.206Z,-75
2018-12-29T02:42:01.929Z,-76
2018-12-29T02:43:01.831Z,-76
2018-12-29T02:44:01.928Z,-76
2018-12-29T02:45:01.702Z,-76
2018-12-29T02:46:01.941Z,-76
2018-12-29T02:47:01.955Z,-76
2018-12-29T02:48:02.224Z,-75
2018-12-29T02:49:02.085Z,-76
2018-12-29T02:50:01.802Z,-76
2018-12-29T02:51:01.600Z,-77
2018-12-29T02:52:02.028Z,-76
2018-12-29T02:53:01.830Z,-76
2018-12-29T02:54:01.722Z,-77
2018-12-29T02:55:01.992Z,-75
2018-12-29T02:56:01.915Z,-76
2018-12-29T02:57:01.915Z,-76
2018-12-29T02:58:01.733Z,-77
2018-12-29T02:59:01.946Z,-76
2018-12-29T03:00:01.633Z,-76
2018-12-29T03:01:01.948Z,-75
2018-12-29T03:02:01.651Z,-77
2018-12-29T03:03:01.675Z,-77
2018-12-29T03:04:02.182Z,-75
2018-12-29T03:05:01.844Z,-76
2018-12-29T03:06:01.770Z,-77
2018-12-29T03:07:02.152Z,-76
2018-12-29T03:08:01.810Z,-75
2018-12-29T03:09:01.599Z,-76
2018-12-29T03:10:02.031Z,-76
2018-12-29T03:11:02.129Z,-76
2018-12-29T03:12:02.218Z,-76
2018-12-29T03:13:01.748Z,-77
2018-12-29T03:14:02.007Z,-77
2018-12-29T03:15:01.742Z,-76
2018-12-29T03:16:02.213Z,-75
2018-12-29T03:17:01.837Z,-76
2018-12-29T03:18:01.796Z,-76
2018-12-29T03:19:01.898Z,-76
2018-12-29T03:20:02.408Z,-75
2018-12-29T03:21:01.746Z,-76
2018-12-29T03:22:01.866Z,-77
2018-12-29T03:23:01.818Z,-76
2018-12-29T03:24:01.704Z,-76
2018-12-29T03:25:01.699Z,-77
2018-12-29T03:26:01.759Z,-76
2018-12-29T03:27:01.725Z,-76
2018-12-29T03:28:01.786Z,-76
2018-12-29T03:29:01.764Z,-76
2018-12-29T03:30:01.716Z,-77
2018-12-29T03:31:01.778Z,-76
2018-12-29T03:32:01.738Z,-77
2018-12-29T03:33:01.832Z,-77
2018-12-29T03:34:01.778Z,-77
2018-12-29T03:35:02.536Z,-76
2018-12-29T03:36:01.863Z,-76
2018-12-29T03:37:01.560Z,-77
2018-12-29T03:38:01.572Z,-76
2018-12-29T03:39:01.573Z,-77
2018-12-29T03:40:01.751Z,-76
2018-12-29T03:41:02.022Z,-75
2018-12-29T03:42:01.802Z,-77
2018-12-29T03:43:01.639Z,-77
2018-12-29T03:44:01.553Z,-77
2018-12-29T03:45:02.013Z,-76
2018-12-29T03:46:01.556Z,-77
2018-12-29T03:47:01.702Z,-76
2018-12-29T03:48:01.789Z,-75
2018-12-29T03:49:01.588Z,-76
2018-12-29T03:50:01.562Z,-76
2018-12-29T03:51:02.009Z,-76
2018-12-29T03:52:01.857Z,-76
2018-12-29T03:53:02.477Z,-76
2018-12-29T03:54:01.546Z,-77
2018-12-29T03:55:01.898Z,-76
2018-12-29T03:56:01.682Z,-77
2018-12-29T03:57:01.506Z,-77
2018-12-29T03:58:01.522Z,-77
2018-12-29T03:59:01.598Z,-77
2018-12-29T04:00:02.025Z,-76
2018-12-29T04:01:01.691Z,-76
2018-12-29T04:02:01.656Z,-77
2018-12-29T04:03:01.557Z,-77
2018-12-29T04:04:01.533Z,-77
2018-12-29T04:05:01.812Z,-76
2018-12-29T04:06:01.545Z,-76
2018-12-29T04:07:01.501Z,-76
2018-12-29T04:08:01.542Z,-77
2018-12-29T04:09:01.622Z,-77
2018-12-29T04:10:01.958Z,-76
2018-12-29T04:11:01.551Z,-77
2018-12-29T04:12:01.707Z,-76
2018-12-29T04:13:01.615Z,-76
2018-12-29T04:14:01.543Z,-76
2018-12-29T04:15:01.593Z,-76
2018-12-29T04:16:01.627Z,-76
2018-12-29T04:17:01.579Z,-77
2018-12-29T04:18:01.604Z,-77
2018-12-29T04:19:02.370Z,-76
2018-12-29T04:20:01.779Z,-75
2018-12-29T04:21:01.818Z,-76
2018-12-29T04:22:01.557Z,-77
2018-12-29T04:23:01.541Z,-77
2018-12-29T04:24:02.332Z,-76
2018-12-29T04:25:01.790Z,-76
2018-12-29T04:26:01.532Z,-76
2018-12-29T04:27:01.720Z,-76
2018-12-29T04:28:02.294Z,-75
2018-12-29T04:29:01.654Z,-76
2018-12-29T04:30:01.592Z,-77
2018-12-29T04:31:01.808Z,-76
2018-12-29T04:32:01.735Z,-77
2018-12-29T04:33:01.880Z,-75
2018-12-29T04:34:01.917Z,-75
2018-12-29T04:35:02.048Z,-75
2018-12-29T04:36:01.684Z,-76
2018-12-29T04:37:01.791Z,-76
2018-12-29T04:38:01.489Z,-76
2018-12-29T04:39:01.460Z,-77
2018-12-29T04:40:01.669Z,-76
2018-12-29T04:41:01.798Z,-75
2018-12-29T04:42:01.501Z,-77
2018-12-29T04:43:01.647Z,-76
2018-12-29T04:44:01.629Z,-76
2018-12-29T04:45:01.782Z,-76
2018-12-29T04:46:05.890Z,-76
2018-12-29T04:47:01.725Z,-76
2018-12-29T04:48:01.451Z,-77
2018-12-29T04:49:01.619Z,-76
2018-12-29T04:50:01.811Z,-76
2018-12-29T04:51:01.484Z,-77
2018-12-29T04:52:01.711Z,-76
2018-12-29T04:53:01.463Z,-76
2018-12-29T04:54:01.560Z,-76
2018-12-29T04:55:01.816Z,-76
2018-12-29T04:56:01.596Z,-77
2018-12-29T04:57:01.824Z,-76
2018-12-29T04:58:01.683Z,-76
2018-12-29T04:59:01.753Z,-76
2018-12-29T05:00:01.674Z,-76
2018-12-29T05:01:01.581Z,-76
2018-12-29T05:02:01.435Z,-76
2018-12-29T05:03:02.248Z,-76
2018-12-29T05:04:01.603Z,-76
2018-12-29T05:05:01.523Z,-77
2018-12-29T05:06:01.462Z,-77
2018-12-29T05:07:01.538Z,-77
2018-12-29T05:08:01.633Z,-76
2018-12-29T05:09:01.587Z,-76
2018-12-29T05:10:01.965Z,-76
2018-12-29T05:11:01.523Z,-77
2018-12-29T05:12:01.660Z,-77
2018-12-29T05:13:01.718Z,-75
2018-12-29T05:14:01.570Z,-77
2018-12-29T05:15:01.673Z,-77
2018-12-29T05:16:01.486Z,-76
2018-12-29T05:17:01.626Z,-76
2018-12-29T05:18:01.736Z,-76
2018-12-29T05:19:01.720Z,-76
2018-12-29T05:20:01.412Z,-77
2018-12-29T05:21:01.586Z,-77
2018-12-29T05:22:01.460Z,-77
2018-12-29T05:23:01.516Z,-76
2018-12-29T05:24:01.598Z,-77
2018-12-29T05:25:01.805Z,-76
2018-12-29T05:26:01.579Z,-77
2018-12-29T05:27:01.972Z,-76
2018-12-29T05:28:01.861Z,-76
2018-12-29T05:29:01.611Z,-76
2018-12-29T05:30:01.422Z,-76
2018-12-29T05:31:01.822Z,-76
2018-12-29T05:32:01.510Z,-77
2018-12-29T05:33:01.698Z,-77
2018-12-29T05:34:01.479Z,-77
2018-12-29T05:35:01.434Z,-76
2018-12-29T05:36:01.392Z,-76
2018-12-29T05:37:01.414Z,-77
2018-12-29T05:38:01.682Z,-77
2018-12-29T05:39:01.681Z,-76
2018-12-29T05:40:01.463Z,-76
2018-12-29T05:41:01.455Z,-76
2018-12-29T05:42:01.471Z,-77
2018-12-29T05:43:01.387Z,-77
2018-12-29T05:44:01.434Z,-77
2018-12-29T05:45:01.402Z,-77
2018-12-29T05:46:01.444Z,-76
2018-12-29T05:47:01.450Z,-77
2018-12-29T05:48:01.436Z,-77
2018-12-29T05:49:01.413Z,-76
2018-12-29T05:50:01.541Z,-77
2018-12-29T05:51:01.427Z,-76
2018-12-29T05:52:01.365Z,-77
2018-12-29T05:53:01.423Z,-76
2018-12-29T05:54:01.434Z,-76
2018-12-29T05:55:01.549Z,-76
2018-12-29T05:56:01.333Z,-76
2018-12-29T05:57:01.393Z,-76
2018-12-29T05:58:01.430Z,-77
2018-12-29T05:59:01.644Z,-77
2018-12-29T06:00:01.824Z,-75
2018-12-29T06:01:02.167Z,-76
2018-12-29T06:02:01.391Z,-77
2018-12-29T06:03:01.634Z,-76
2018-12-29T06:04:01.653Z,-76
2018-12-29T06:05:01.656Z,-77
2018-12-29T06:06:01.374Z,-77
2018-12-29T06:07:01.377Z,-77
2018-12-29T06:08:01.566Z,-76
2018-12-29T06:09:01.424Z,-77
2018-12-29T06:10:01.550Z,-76
2018-12-29T06:11:01.712Z,-76
2018-12-29T06:12:01.768Z,-75
2018-12-29T06:13:01.350Z,-76
2018-12-29T06:14:01.562Z,-76
2018-12-29T06:15:01.523Z,-76
2018-12-29T06:16:01.884Z,-76
2018-12-29T06:17:01.432Z,-77
2018-12-29T06:18:01.687Z,-75
2018-12-29T06:19:01.648Z,-76
2018-12-29T06:20:01.897Z,-76
2018-12-29T06:21:01.643Z,-76
2018-12-29T06:22:01.740Z,-75
2018-12-29T06:23:01.771Z,-75
2018-12-29T06:24:01.367Z,-77
2018-12-29T06:25:01.730Z,-76
2018-12-29T06:26:01.533Z,-76
2018-12-29T06:27:01.765Z,-76
2018-12-29T06:28:01.338Z,-76
2018-12-29T06:29:01.686Z,-76
2018-12-29T06:30:01.626Z,-77
2018-12-29T06:31:01.393Z,-77
2018-12-29T06:32:01.487Z,-77
2018-12-29T06:33:01.323Z,-77
2018-12-29T06:34:01.975Z,-75
2018-12-29T06:35:01.502Z,-76
2018-12-29T06:36:01.314Z,-76
2018-12-29T06:37:01.519Z,-76
2018-12-29T06:38:01.358Z,-77
2018-12-29T06:39:01.582Z,-76
2018-12-29T06:40:01.324Z,-77
2018-12-29T06:41:01.345Z,-77
2018-12-29T06:42:01.316Z,-77
2018-12-29T06:43:01.766Z,-76
2018-12-29T06:44:01.349Z,-77
2018-12-29T06:45:01.631Z,-76
2018-12-29T06:46:01.423Z,-76
2018-12-29T06:47:01.333Z,-77
2018-12-29T06:48:01.905Z,-75
2018-12-29T06:49:01.869Z,-76
2018-12-29T06:50:01.437Z,-76
2018-12-29T06:51:01.668Z,-76
2018-12-29T06:52:01.390Z,-76
2018-12-29T06:53:01.454Z,-76
2018-12-29T06:54:01.352Z,-77
2018-12-29T06:55:01.608Z,-76
2018-12-29T06:56:01.472Z,-75
2018-12-29T06:57:01.442Z,-77
2018-12-29T06:58:01.631Z,-77
2018-12-29T06:59:02.057Z,-75
2018-12-29T07:00:01.317Z,-77
2018-12-29T07:01:01.580Z,-76
2018-12-29T07:02:01.598Z,-76
2018-12-29T07:03:01.692Z,-75
2018-12-29T07:04:01.478Z,-76
2018-12-29T07:05:01.434Z,-77
2018-12-29T07:06:02.140Z,-76
2018-12-29T07:07:01.565Z,-76
2018-12-29T07:08:01.279Z,-77
2018-12-29T07:09:01.647Z,-76
2018-12-29T07:10:01.325Z,-77
2018-12-29T07:11:01.579Z,-77
2018-12-29T07:12:01.635Z,-76
2018-12-29T07:13:01.623Z,-77
2018-12-29T07:14:01.446Z,-77
2018-12-29T07:15:01.389Z,-77
2018-12-29T07:16:01.337Z,-76
2018-12-29T07:17:01.282Z,-76
2018-12-29T07:18:01.391Z,-77
2018-12-29T07:19:01.368Z,-77
2018-12-29T07:20:01.420Z,-76
2018-12-29T07:21:01.343Z,-77
2018-12-29T07:22:01.247Z,-77
2018-12-29T07:23:01.532Z,-76
2018-12-29T07:24:01.245Z,-76
2018-12-29T07:25:01.296Z,-76
2018-12-29T07:26:01.375Z,-76
2018-12-29T07:27:01.265Z,-76
2018-12-29T07:28:01.227Z,-77
2018-12-29T07:29:01.469Z,-76
2018-12-29T07:30:01.258Z,-76
2018-12-29T07:31:01.328Z,-76
2018-12-29T07:32:01.561Z,-75
2018-12-29T07:33:01.497Z,-77
2018-12-29T07:34:01.570Z,-76
2018-12-29T07:35:01.240Z,-76
2018-12-29T07:36:01.312Z,-76
2018-12-29T07:37:01.384Z,-76
2018-12-29T07:38:01.267Z,-76
2018-12-29T07:39:01.577Z,-76
2018-12-29T07:40:01.528Z,-76
2018-12-29T07:41:01.367Z,-75
2018-12-29T07:42:01.275Z,-76
2018-12-29T07:43:02.106Z,-74
2018-12-29T07:44:02.043Z,-75
2018-12-29T07:45:01.279Z,-76
2018-12-29T07:46:01.351Z,-76
2018-12-29T07:47:01.841Z,-76
2018-12-29T07:48:01.214Z,-77
2018-12-29T07:49:02.039Z,-75
2018-12-29T07:50:01.377Z,-76
2018-12-29T07:51:01.239Z,-76
2018-12-29T07:52:01.531Z,-76
2018-12-29T07:53:01.418Z,-76
2018-12-29T07:54:01.360Z,-77
2018-12-29T07:55:01.381Z,-76
2018-12-29T07:56:01.302Z,-76
2018-12-29T07:57:01.296Z,-76
2018-12-29T07:58:01.274Z,-76
2018-12-29T07:59:01.003Z,-76
2018-12-29T08:00:01.487Z,-76
2018-12-29T08:01:01.321Z,-76
2018-12-29T08:02:01.500Z,-75
2018-12-29T08:03:01.644Z,-76
2018-12-29T08:04:01.248Z,-77
2018-12-29T08:05:01.554Z,-76
2018-12-29T08:06:01.240Z,-77
2018-12-29T08:07:01.397Z,-76
2018-12-29T08:08:01.213Z,-76
2018-12-29T08:09:01.229Z,-76
2018-12-29T08:10:01.495Z,-75
2018-12-29T08:11:01.313Z,-76
2018-12-29T08:12:01.709Z,-75
2018-12-29T08:13:01.709Z,-75
2018-12-29T08:14:01.602Z,-75
2018-12-29T08:15:01.530Z,-75
2018-12-29T08:16:01.473Z,-76
2018-12-29T08:17:01.461Z,-75
2018-12-29T08:18:01.434Z,-75
2018-12-29T08:19:01.190Z,-76
2018-12-29T08:20:01.787Z,-77
2018-12-29T08:21:02.094Z,-76
2018-12-29T08:22:01.275Z,-77
2018-12-29T08:23:01.279Z,-76
2018-12-29T08:24:01.430Z,-77
2018-12-29T08:25:01.429Z,-76
2018-12-29T08:26:01.185Z,-76
2018-12-29T08:27:01.744Z,-78
2018-12-29T08:28:01.505Z,-78
2018-12-29T08:29:01.370Z,-77
2018-12-29T08:30:01.329Z,-78
2018-12-29T08:31:01.494Z,-77
2018-12-29T08:32:01.360Z,-77
2018-12-29T08:33:01.396Z,-77
2018-12-29T08:34:01.575Z,-77
2018-12-29T08:35:01.509Z,-76
2018-12-29T08:36:01.772Z,-77
2018-12-29T08:37:01.158Z,-77
2018-12-29T08:38:01.544Z,-77
2018-12-29T08:39:01.685Z,-76
2018-12-29T08:40:01.178Z,-78
2018-12-29T08:41:01.271Z,-78
2018-12-29T08:42:01.259Z,-77
2018-12-29T08:43:01.198Z,-77
2018-12-29T08:44:01.433Z,-77
2018-12-29T08:45:01.325Z,-77
2018-12-29T08:46:01.264Z,-77
2018-12-29T08:47:05.243Z,-77
2018-12-29T08:48:01.565Z,-78
2018-12-29T08:49:01.203Z,-77
2018-12-29T08:50:01.322Z,-77
2018-12-29T08:51:01.603Z,-77
2018-12-29T08:52:01.469Z,-78
2018-12-29T08:53:01.190Z,-77
2018-12-29T08:54:01.192Z,-77
2018-12-29T08:55:01.260Z,-77
2018-12-29T08:56:01.395Z,-77
2018-12-29T08:57:01.220Z,-78
2018-12-29T08:58:01.138Z,-78
2018-12-29T08:59:01.311Z,-78
2018-12-29T09:00:01.341Z,-77
2018-12-29T09:01:01.112Z,-78
2018-12-29T09:02:01.500Z,-78
2018-12-29T09:03:01.331Z,-78
2018-12-29T09:04:01.201Z,-77
2018-12-29T09:05:01.344Z,-78
2018-12-29T09:06:01.251Z,-78
2018-12-29T09:07:01.185Z,-78
2018-12-29T09:08:01.229Z,-78
2018-12-29T09:09:01.083Z,-78
2018-12-29T09:10:01.315Z,-77
2018-12-29T09:11:01.085Z,-77
2018-12-29T09:12:01.378Z,-78
2018-12-29T09:13:01.448Z,-78
2018-12-29T09:14:01.589Z,-78
2018-12-29T09:15:01.787Z,-79
2018-12-29T09:16:01.565Z,-79
2018-12-29T09:17:01.275Z,-81
2018-12-29T09:18:01.692Z,-79
2018-12-29T09:19:01.292Z,-79
2018-12-29T09:20:01.923Z,-79
2018-12-29T09:21:01.335Z,-79
2018-12-29T09:22:01.298Z,-79
2018-12-29T09:23:01.732Z,-79
2018-12-29T09:24:01.292Z,-79
2018-12-29T09:25:01.263Z,-79
2018-12-29T09:26:01.132Z,-79
2018-12-29T09:27:01.239Z,-78
2018-12-29T09:28:01.319Z,-77
2018-12-29T09:29:01.538Z,-77
2018-12-29T09:30:01.352Z,-76
2018-12-29T09:31:01.293Z,-79
2018-12-29T09:32:01.278Z,-79
2018-12-29T09:33:01.926Z,-76
2018-12-29T09:34:01.387Z,-77
2018-12-29T09:35:01.459Z,-77
2018-12-29T09:36:01.334Z,-77
2018-12-29T09:37:01.267Z,-79
2018-12-29T09:38:01.030Z,-79
2018-12-29T09:39:01.192Z,-79
2018-12-29T09:40:01.884Z,-79
2018-12-29T09:41:01.449Z,-79
2018-12-29T09:42:01.319Z,-79
2018-12-29T09:43:01.248Z,-79
2018-12-29T09:44:01.863Z,-79
2018-12-29T09:45:01.371Z,-79
2018-12-29T09:46:01.436Z,-79
2018-12-29T09:47:01.236Z,-79
2018-12-29T09:48:01.193Z,-79
2018-12-29T09:49:02.121Z,-79
2018-12-29T09:50:01.070Z,-79
2018-12-29T09:51:01.160Z,-79
2018-12-29T09:52:01.735Z,-79
2018-12-29T09:53:04.283Z,-79
2018-12-29T09:54:01.114Z,-79
2018-12-29T09:55:01.103Z,-79
2018-12-29T09:56:01.305Z,-78
2018-12-29T09:57:01.343Z,-77
2018-12-29T09:58:01.266Z,-78
2018-12-29T09:59:01.035Z,-78
2018-12-29T10:00:01.257Z,-77
2018-12-29T10:01:01.399Z,-76
2018-12-29T10:02:01.412Z,-78
2018-12-29T10:03:01.468Z,-77
2018-12-29T10:04:01.134Z,-78
2018-12-29T10:05:01.858Z,-77
2018-12-29T10:06:01.307Z,-78
2018-12-29T10:07:01.417Z,-79
2018-12-29T10:08:01.272Z,-79
2018-12-29T10:09:01.228Z,-79
2018-12-29T10:10:01.214Z,-79
2018-12-29T10:11:01.366Z,-79
2018-12-29T10:12:01.376Z,-79
2018-12-29T10:13:01.077Z,-79
2018-12-29T10:14:01.062Z,-79
2018-12-29T10:15:01.166Z,-78
2018-12-29T10:16:01.280Z,-77
2018-12-29T10:17:01.844Z,-79
2018-12-29T10:18:01.200Z,-79
2018-12-29T10:19:01.345Z,-79
2018-12-29T10:20:01.318Z,-79
2018-12-29T10:21:01.138Z,-79
2018-12-29T10:22:01.730Z,-79
2018-12-29T10:23:01.347Z,-80
2018-12-29T10:24:01.928Z,-79
2018-12-29T10:25:01.598Z,-79
2018-12-29T10:26:00.985Z,-78
2018-12-29T10:27:01.274Z,-79
2018-12-29T10:28:01.503Z,-79
2018-12-29T10:29:01.312Z,-80
2018-12-29T10:30:01.082Z,-79
2018-12-29T10:31:02.302Z,-79
2018-12-29T10:32:01.230Z,-77
2018-12-29T10:33:01.311Z,-77
2018-12-29T10:34:01.393Z,-79
2018-12-29T10:35:00.950Z,-79
2018-12-29T10:36:01.831Z,-80
2018-12-29T10:37:01.087Z,-79
2018-12-29T10:38:01.127Z,-79
2018-12-29T10:39:01.421Z,-79
2018-12-29T10:40:01.024Z,-79
2018-12-29T10:41:01.455Z,-79
2018-12-29T10:42:01.165Z,-80
2018-12-29T10:43:01.040Z,-78
2018-12-29T10:44:01.219Z,-79
2018-12-29T10:45:01.551Z,-77
2018-12-29T10:46:01.321Z,-78
2018-12-29T10:47:01.173Z,-77
2018-12-29T10:48:01.700Z,-76
2018-12-29T10:49:01.413Z,-79
2018-12-29T10:50:02.355Z,-80
2018-12-29T10:51:00.995Z,-80
2018-12-29T10:52:03.667Z,-80
2018-12-29T10:53:01.357Z,-80
2018-12-29T10:54:01.745Z,-79
2018-12-29T10:55:01.019Z,-80
2018-12-29T10:56:01.017Z,-79
2018-12-29T10:57:01.330Z,-79
2018-12-29T10:58:01.594Z,-80
2018-12-29T10:59:01.174Z,-79
2018-12-29T11:00:01.874Z,-80
2018-12-29T11:01:01.204Z,-80
2018-12-29T11:02:06.717Z,-80
2018-12-29T11:03:01.437Z,-79
2018-12-29T11:04:00.974Z,-80
2018-12-29T11:05:01.068Z,-80
2018-12-29T11:06:02.009Z,-79
2018-12-29T11:07:01.009Z,-80
2018-12-29T11:08:01.512Z,-79
2018-12-29T11:09:01.116Z,-80
2018-12-29T11:10:01.032Z,-80
2018-12-29T11:11:01.218Z,-80
2018-12-29T11:12:01.180Z,-79
2018-12-29T11:13:01.257Z,-80
2018-12-29T11:14:01.739Z,-80
2018-12-29T11:15:01.099Z,-80
2018-12-29T11:16:01.233Z,-80
2018-12-29T11:17:04.466Z,-80
2018-12-29T11:18:01.347Z,-80
2018-12-29T11:19:02.159Z,-80
2018-12-29T11:20:01.315Z,-80
2018-12-29T11:21:02.897Z,-79
2018-12-29T11:22:01.817Z,-80
2018-12-29T11:23:01.751Z,-80
2018-12-29T11:24:01.118Z,-80
2018-12-29T11:25:01.375Z,-80
2018-12-29T11:26:01.859Z,-80
2018-12-29T11:27:01.288Z,-80
2018-12-29T11:28:01.093Z,-79
2018-12-29T11:29:00.953Z,-80
2018-12-29T11:30:01.222Z,-80
2018-12-29T11:31:01.487Z,-80
2018-12-29T11:32:01.236Z,-80
2018-12-29T11:33:01.290Z,-79
2018-12-29T11:34:01.230Z,-79
2018-12-29T11:35:01.020Z,-79
2018-12-29T11:36:01.276Z,-80
2018-12-29T11:37:01.302Z,-80
2018-12-29T11:38:01.034Z,-80
2018-12-29T11:39:01.265Z,-80
2018-12-29T11:40:01.176Z,-80
2018-12-29T11:41:01.302Z,-80
2018-12-29T11:42:00.864Z,-79
2018-12-29T11:43:01.110Z,-80
2018-12-29T11:44:00.923Z,-80
2018-12-29T11:45:01.195Z,-81
2018-12-29T11:46:00.929Z,-80
2018-12-29T11:47:00.910Z,-80
2018-12-29T11:48:01.203Z,-80
2018-12-29T11:49:02.437Z,-79
2018-12-29T11:50:01.552Z,-80
2018-12-29T11:51:03.545Z,-80
2018-12-29T11:52:01.364Z,-80
2018-12-29T11:53:00.953Z,-80
2018-12-29T11:54:00.979Z,-80
2018-12-29T11:55:01.571Z,-80
2018-12-29T11:56:01.353Z,-80
2018-12-29T11:57:01.106Z,-80
2018-12-29T11:58:01.213Z,-80
2018-12-29T11:59:01.375Z,-80
2018-12-29T12:00:03.269Z,-80
2018-12-29T12:01:01.022Z,-80
2018-12-29T12:02:01.321Z,-80
2018-12-29T12:03:00.991Z,-80
2018-12-29T12:04:01.122Z,-80
2018-12-29T12:05:01.156Z,-79
2018-12-29T12:06:00.961Z,-80
2018-12-29T12:07:01.065Z,-79
2018-12-29T12:08:01.024Z,-80
2018-12-29T12:09:03.041Z,-80
2018-12-29T12:10:00.954Z,-80
2018-12-29T12:11:00.964Z,-80
2018-12-29T12:12:00.979Z,-80
2018-12-29T12:13:01.766Z,-80
2018-12-29T12:14:00.955Z,-79
2018-12-29T12:15:01.405Z,-80
2018-12-29T12:16:01.011Z,-80
2018-12-29T12:17:01.781Z,-80
2018-12-29T12:18:03.201Z,-80
2018-12-29T12:19:00.997Z,-79
2018-12-29T12:20:01.534Z,-80
2018-12-29T12:21:01.286Z,-80
2018-12-29T12:22:01.089Z,-80
2018-12-29T12:23:01.150Z,-76
2018-12-29T12:24:01.633Z,-76
2018-12-29T12:25:01.150Z,-78
2018-12-29T12:26:01.329Z,-76
2018-12-29T12:27:01.131Z,-77
2018-12-29T12:28:01.789Z,-76
2018-12-29T12:29:04.131Z,-76
2018-12-29T12:30:01.438Z,-76
2018-12-29T12:31:01.434Z,-76
2018-12-29T12:32:00.916Z,-78
2018-12-29T12:33:01.632Z,-76
2018-12-29T12:34:03.259Z,-78
2018-12-29T12:35:01.047Z,-78
2018-12-29T12:36:01.225Z,-78
2018-12-29T12:37:01.210Z,-76
2018-12-29T12:38:01.010Z,-78
2018-12-29T12:39:04.192Z,-76
2018-12-29T12:40:01.228Z,-77
2018-12-29T12:41:01.021Z,-78
2018-12-29T12:42:00.971Z,-77
2018-12-29T12:43:00.957Z,-78
2018-12-29T12:44:01.299Z,-76
2018-12-29T12:45:01.105Z,-77
2018-12-29T12:46:01.144Z,-76
2018-12-29T12:47:01.106Z,-77
2018-12-29T12:48:05.819Z,-78
2018-12-29T12:49:01.121Z,-78
2018-12-29T12:50:02.749Z,-78
2018-12-29T12:51:01.377Z,-76
2018-12-29T12:52:01.148Z,-77
2018-12-29T12:53:01.109Z,-76
2018-12-29T12:54:01.131Z,-79
2018-12-29T12:55:00.956Z,-78
2018-12-29T12:56:01.566Z,-78
2018-12-29T12:57:03.967Z,-76
2018-12-29T12:58:03.510Z,-78
2018-12-29T12:59:02.481Z,-78
2018-12-29T13:00:03.715Z,-78
2018-12-29T13:01:03.565Z,-79
2018-12-29T13:02:01.970Z,-78
2018-12-29T13:03:01.148Z,-77
2018-12-29T13:04:01.284Z,-76
2018-12-29T13:05:01.264Z,-76
2018-12-29T13:06:01.341Z,-76
2018-12-29T13:07:00.910Z,-78
2018-12-29T13:08:00.896Z,-77
2018-12-29T13:09:01.332Z,-78
2018-12-29T13:10:01.030Z,-78
2018-12-29T13:11:01.060Z,-78
2018-12-29T13:12:01.085Z,-76
2018-12-29T13:13:00.834Z,-78
2018-12-29T13:14:00.892Z,-78
2018-12-29T13:15:01.194Z,-76
2018-12-29T13:16:00.898Z,-79
2018-12-29T13:17:01.080Z,-78
2018-12-29T13:18:01.762Z,-79
2018-12-29T13:19:00.992Z,-79
2018-12-29T13:20:00.986Z,-78
2018-12-29T13:21:00.636Z,-78
2018-12-29T13:22:01.146Z,-77
2018-12-29T13:23:00.869Z,-78
2018-12-29T13:24:00.887Z,-78
2018-12-29T13:25:00.863Z,-78
2018-12-29T13:26:01.023Z,-78
2018-12-29T13:27:02.062Z,-79
2018-12-29T13:28:01.015Z,-76
2018-12-29T13:29:00.839Z,-78
2018-12-29T13:30:01.010Z,-77
2018-12-29T13:31:01.076Z,-78
2018-12-29T13:32:00.901Z,-79
2018-12-29T13:33:01.151Z,-80
2018-12-29T13:34:01.166Z,-80
2018-12-29T13:35:00.800Z,-80
2018-12-29T13:36:03.077Z,-81
2018-12-29T13:37:00.938Z,-80
2018-12-29T13:38:00.978Z,-79
2018-12-29T13:39:00.952Z,-80
2018-12-29T13:40:00.819Z,-80
2018-12-29T13:41:00.807Z,-79
2018-12-29T13:42:01.091Z,-79
2018-12-29T13:43:00.868Z,-77
2018-12-29T13:44:00.932Z,-79
2018-12-29T13:45:02.256Z,-78
2018-12-29T13:46:00.942Z,-77